Time;durP1;ratioP1;P1;durP2;ratioP2;P2;SDS_P1;SDS_P2;PMS_P1;PMS_P2;Temp;Humidity;BMP_temperature;BMP_pressure;BME280_temperature;BME280_humidity;BME280_pressure;Samples;Min_cycle;Max_cycle;Signal;HPM_P1;HPM_P2
2022/09/05 00:02:33;;;;;;;5.15;4.35;;;19.80;99.90;;;;;;5121597;27;20073;-80
2022/09/05 00:05:26;;;;;;;5.63;4.28;;;19.70;99.90;;;;;;5103735;28;20372;-80
2022/09/05 00:08:16;;;;;;;6.85;3.60;;;19.60;99.90;;;;;;5105183;28;20070;-79
2022/09/05 00:10:54;;;;;;;5.13;4.30;;;19.80;99.90;;;;;;5134030;27;20039;-80
2022/09/05 00:13:26;;;;;;;8.60;4.05;;;19.60;99.90;;;;;;5103590;28;20486;-80
2022/09/05 00:16:22;;;;;;;6.70;4.63;;;19.80;99.90;;;;;;5104114;28;20039;-85
2022/09/05 00:19:16;;;;;;;6.20;4.45;;;19.70;99.90;;;;;;5115138;28;20039;-85
2022/09/05 00:21:52;;;;;;;5.00;4.20;;;19.50;99.90;;;;;;5093134;28;20470;-85
2022/09/05 00:24:48;;;;;;;5.18;3.92;;;19.50;99.90;;;;;;5131604;28;20035;-84
2022/09/05 00:27:43;;;;;;;6.80;3.75;;;19.70;99.90;;;;;;5135279;27;20047;-86
2022/09/05 00:30:13;;;;;;;;;;;19.50;99.90;;;;;;5085280;28;20172;-85
2022/09/05 00:33:03;;;;;;;5.97;4.90;;;19.40;99.90;;;;;;5119739;28;19919;-85
2022/09/05 00:35:53;;;;;;;8.68;4.43;;;19.40;99.90;;;;;;5104140;27;20550;-84
2022/09/05 00:38:22;;;;;;;4.75;4.20;;;19.50;99.90;;;;;;5125750;27;20039;-86
2022/09/05 00:40:49;;;;;;;5.00;3.90;;;19.30;99.90;;;;;;5125410;27;20131;-86
2022/09/05 00:43:28;;;;;;;5.30;4.07;;;19.30;99.90;;;;;;5142647;27;20051;-84
2022/09/05 00:46:02;;;;;;;8.48;4.32;;;19.20;99.90;;;;;;5125220;27;20396;-85
2022/09/05 00:48:28;;;;;;;10.48;4.05;;;;;;;;;;5124937;27;20094;-86
2022/09/05 00:51:32;;;;;;;4.72;4.25;;;19.10;99.90;;;;;;5112995;27;20043;-84
2022/09/05 00:54:00;;;;;;;4.70;3.92;;;19.20;99.90;;;;;;5122936;27;20070;-83
2022/09/05 00:56:26;;;;;;;10.48;4.35;;;;;;;;;;5124959;27;20047;-83
2022/09/05 00:59:02;;;;;;;4.53;3.90;;;19.30;99.90;;;;;;5104033;27;20476;-84
2022/09/05 01:01:40;;;;;;;12.02;5.07;;;19.20;99.90;;;;;;5107856;27;20572;-85
2022/09/05 01:04:09;;;;;;;5.65;4.55;;;19.20;99.90;;;;;;5108034;27;20425;-85
2022/09/05 01:06:57;;;;;;;4.90;3.92;;;19.20;99.90;;;;;;5104672;27;20042;-83
2022/09/05 01:09:49;;;;;;;6.10;4.38;;;18.80;99.90;;;;;;5107971;27;20035;-85
2022/09/05 01:12:15;;;;;;;5.90;4.13;;;;;;;;;;5143602;27;20047;-81
2022/09/05 01:15:16;;;;;;;8.85;4.90;;;19.00;99.90;;;;;;5107867;27;20079;-80
2022/09/05 01:18:01;;;;;;;6.70;4.25;;;18.90;99.90;;;;;;5124077;27;20076;-82
2022/09/05 01:20:27;;;;;;;5.07;4.57;;;;;;;;;;5101686;28;20122;-85
2022/09/05 01:23:02;;;;;;;8.70;4.90;;;18.80;99.90;;;;;;5075638;28;20118;-81
2022/09/05 01:26:17;;;;;;;4.93;4.40;;;18.80;99.90;;;;;;5076000;28;20097;-81
2022/09/05 01:28:52;;;;;;;9.40;4.10;;;18.50;99.90;;;;;;5049479;27;20495;-81
2022/09/05 01:31:49;;;;;;;8.18;4.68;;;18.80;99.90;;;;;;5135270;27;20035;-81
2022/09/05 01:34:23;;;;;;;6.68;4.40;;;18.80;99.90;;;;;;5099271;27;20115;-80
2022/09/05 01:37:26;;;;;;;4.63;4.05;;;18.60;99.90;;;;;;5121290;27;20046;-85
2022/09/05 01:40:35;;;;;;;4.95;4.45;;;18.70;99.90;;;;;;5102541;27;20047;-82
2022/09/05 01:43:01;;;;;;;6.30;4.13;;;;;;;;;;5133221;27;20403;-80
2022/09/05 01:45:46;;;;;;;8.60;4.55;;;18.40;99.90;;;;;;5134941;27;20031;-82
2022/09/05 01:48:33;;;;;;;8.23;4.43;;;18.60;99.90;;;;;;5132508;27;20502;-80
2022/09/05 01:51:43;;;;;;;9.27;4.95;;;18.70;99.90;;;;;;5104924;28;20054;-81
2022/09/05 01:54:14;;;;;;;6.05;4.82;;;18.60;99.90;;;;;;5080311;28;20059;-84
2022/09/05 01:56:47;;;;;;;8.10;5.13;;;18.80;99.90;;;;;;5082566;28;20121;-80
2022/09/05 01:59:13;;;;;;;5.43;4.70;;;;;;;;;;5074328;28;20081;-84
2022/09/05 02:02:20;;;;;;;6.00;4.30;;;18.30;99.90;;;;;;5083359;28;20356;-80
2022/09/05 02:05:19;;;;;;;5.30;4.47;;;18.50;99.90;;;;;;5075354;28;20044;-80
2022/09/05 02:08:26;;;;;;;6.45;4.53;;;18.40;99.90;;;;;;5069507;28;20163;-79
2022/09/05 02:11:03;;;;;;;6.07;5.38;;;18.40;99.90;;;;;;5070672;28;20451;-81
2022/09/05 02:13:34;;;;;;;5.38;4.88;;;18.50;99.90;;;;;;5082746;28;20414;-81
2022/09/05 02:16:11;;;;;;;10.40;5.88;;;18.40;99.90;;;;;;5085182;28;20047;-81
2022/09/05 02:18:54;;;;;;;6.72;4.80;;;17.80;99.90;;;;;;5085488;28;20127;-80
2022/09/05 02:21:37;;;;;;;8.00;5.00;;;18.40;99.90;;;;;;5064590;28;20494;-79
2022/09/05 02:24:05;;;;;;;7.05;4.95;;;18.20;99.90;;;;;;5074729;28;20068;-80
2022/09/05 02:26:42;;;;;;;6.75;5.88;;;18.20;99.90;;;;;;5085272;28;20495;-79
2022/09/05 02:29:21;;;;;;;8.45;5.20;;;18.10;99.90;;;;;;5094342;27;20095;-80
2022/09/05 02:31:56;;;;;;;7.85;5.40;;;18.00;99.90;;;;;;5123872;27;20047;-80
2022/09/05 02:34:32;;;;;;;7.03;5.38;;;18.00;99.90;;;;;;5132264;27;20054;-79
2022/09/05 02:37:05;;;;;;;9.40;5.60;;;;;;;;;;5123930;27;20054;-79
2022/09/05 02:39:34;;;;;;;9.10;5.70;;;;;;;;;;5133498;27;20043;-81
2022/09/05 02:42:05;;;;;;;13.00;5.63;;;;;;;;;;5129061;27;20130;-82
2022/09/05 02:44:34;;;;;;;7.75;5.10;;;;;;;;;;5141976;27;20058;-83
2022/09/05 02:47:00;;;;;;;6.82;5.45;;;;;;;;;;5134703;27;20047;-89
2022/09/05 02:50:03;;;;;;;6.40;5.70;;;18.00;99.90;;;;;;5144778;27;20506;-84
2022/09/05 02:52:33;;;;;;;9.10;5.32;;;17.70;99.90;;;;;;5126317;27;20127;-88
2022/09/05 02:55:01;;;;;;;8.30;5.20;;;17.90;99.90;;;;;;5135152;27;20038;-86
2022/09/05 02:57:27;;;;;;;11.68;6.10;;;;;;;;;;5124434;27;20046;-80
2022/09/05 02:59:53;;;;;;;8.18;5.72;;;;;;;;;;5115386;27;20043;-79
2022/09/05 03:02:19;;;;;;;6.45;5.70;;;;;;;;;;5140853;27;20050;-80
2022/09/05 03:04:53;;;;;;;8.80;5.75;;;17.70;99.90;;;;;;5106356;27;20090;-80
2022/09/05 03:07:35;;;;;;;9.75;5.68;;;17.80;99.90;;;;;;5105410;27;20394;-82
2022/09/05 03:10:10;;;;;;;9.55;5.57;;;;;;;;;;5114840;27;20514;-80
2022/09/05 03:12:54;;;;;;;5.82;5.32;;;17.50;99.90;;;;;;5140254;27;20046;-81
2022/09/05 03:15:39;;;;;;;6.72;5.75;;;;;;;;;;5134002;27;20042;-79
2022/09/05 03:18:23;;;;;;;6.97;5.68;;;17.30;99.90;;;;;;5123706;27;20118;-80
2022/09/05 03:20:50;;;;;;;6.82;5.88;;;;;;;;;;5122646;27;20062;-84
2022/09/05 03:23:51;;;;;;;9.85;6.28;;;17.40;99.90;;;;;;5101901;28;20130;-80
2022/09/05 03:26:17;;;;;;;7.80;5.55;;;;;;;;;;5139297;27;20080;-80
2022/09/05 03:29:21;;;;;;;9.90;6.85;;;17.50;99.90;;;;;;5140113;27;20050;-81
2022/09/05 03:32:34;;;;;;;9.13;6.70;;;17.50;99.90;;;;;;5105514;27;20050;-79
2022/09/05 03:35:38;;;;;;;8.00;5.93;;;17.30;99.90;;;;;;5069207;28;20048;-83
2022/09/05 03:38:35;;;;;;;11.57;6.47;;;17.30;99.90;;;;;;4987697;28;20079;-81
2022/09/05 03:41:36;;;;;;;7.55;6.65;;;17.50;99.90;;;;;;4997502;28;20080;-81
2022/09/05 03:44:13;;;;;;;8.57;6.35;;;;;;;;;;5004171;28;20054;-80
2022/09/05 03:47:00;;;;;;;8.38;5.32;;;17.30;99.90;;;;;;4993803;28;20045;-80
2022/09/05 03:49:49;;;;;;;10.20;7.40;;;17.30;99.90;;;;;;4986055;28;20056;-80
2022/09/05 03:52:42;;;;;;;7.72;7.03;;;17.20;99.90;;;;;;4987761;28;20072;-78
2022/09/05 03:55:45;;;;;;;7.07;6.28;;;17.10;99.90;;;;;;4995443;28;20114;-81
2022/09/05 03:58:17;;;;;;;8.60;6.57;;;;;;;;;;4993126;28;20154;-80
2022/09/05 04:00:57;;;;;;;15.30;6.50;;;17.20;99.90;;;;;;4983676;28;20430;-81
2022/09/05 04:03:31;;;;;;;7.32;5.97;;;17.10;99.90;;;;;;4980849;28;20568;-79
2022/09/05 04:06:28;;;;;;;8.90;6.38;;;17.10;99.90;;;;;;4997252;28;20592;-79
2022/09/05 04:09:04;;;;;;;9.55;6.30;;;17.00;99.90;;;;;;5003127;28;20525;-79
2022/09/05 04:11:37;;;;;;;11.20;6.90;;;;;;;;;;5014914;28;20051;-80
2022/09/05 04:14:26;;;;;;;10.73;7.00;;;17.10;99.90;;;;;;5070756;28;20119;-80
2022/09/05 04:16:58;;;;;;;15.40;6.47;;;17.00;99.90;;;;;;5103352;28;20035;-85
2022/09/05 04:19:24;;;;;;;8.55;6.45;;;;;;;;;;5122061;28;20043;-84
2022/09/05 04:22:11;;;;;;;8.60;6.90;;;;;;;;;;5113402;28;20147;-85
2022/09/05 04:24:56;;;;;;;8.63;6.30;;;16.70;99.90;;;;;;5113984;28;20079;-86
2022/09/05 04:27:27;;;;;;;11.57;6.80;;;16.90;99.90;;;;;;5123494;28;20051;-84
2022/09/05 04:29:56;;;;;;;7.85;6.18;;;;;;;;;;5122606;28;20039;-86
2022/09/05 04:32:28;;;;;;;14.18;7.03;;;;;;;;;;5097137;28;20045;-85
2022/09/05 04:35:27;;;;;;;9.88;7.00;;;16.80;99.90;;;;;;5101434;28;20039;-85
2022/09/05 04:38:10;;;;;;;7.03;6.43;;;16.80;99.90;;;;;;5133288;27;20503;-80
2022/09/05 04:40:36;;;;;;;7.43;6.72;;;;;;;;;;5106976;28;20043;-82
2022/09/05 04:43:17;;;;;;;8.98;6.78;;;16.90;99.90;;;;;;5105980;28;20148;-80
2022/09/05 04:46:05;;;;;;;9.38;7.43;;;16.70;99.90;;;;;;5128222;28;20039;-81
2022/09/05 04:48:54;;;;;;;8.30;6.90;;;;;;;;;;5126309;28;20055;-87
2022/09/05 04:51:32;;;;;;;9.27;7.93;;;;;;;;;;5103638;28;20893;-80
2022/09/05 04:53:59;;;;;;;10.55;6.15;;;;;;;;;;5126694;28;20126;-80
2022/09/05 04:56:32;;;;;;;10.52;7.20;;;16.70;99.90;;;;;;5129807;28;20436;-80
2022/09/05 04:59:03;;;;;;;9.13;7.43;;;;;;;;;;5105309;28;20122;-80
2022/09/05 05:01:49;;;;;;;7.53;6.50;;;16.80;99.90;;;;;;5143241;27;20039;-80
2022/09/05 05:04:19;;;;;;;8.45;6.88;;;;;;;;;;5104720;28;20555;-80
2022/09/05 05:07:11;;;;;;;7.25;6.53;;;16.60;99.90;;;;;;5111573;28;20078;-80
2022/09/05 05:09:46;;;;;;;11.73;7.53;;;16.60;99.90;;;;;;5116861;28;20031;-81
2022/09/05 05:12:24;;;;;;;7.45;6.50;;;16.60;99.90;;;;;;5123506;27;20042;-80
2022/09/05 05:14:59;;;;;;;14.27;7.38;;;16.40;99.90;;;;;;5131032;27;20064;-80
2022/09/05 05:17:25;;;;;;;7.63;6.30;;;;;;;;;;5104115;28;20043;-82
2022/09/05 05:20:21;;;;;;;10.02;6.88;;;16.60;99.90;;;;;;5144996;27;20035;-80
2022/09/05 05:23:01;;;;;;;11.05;6.90;;;16.60;99.90;;;;;;5081487;27;20450;-80
2022/09/05 05:25:27;;;;;;;12.30;7.72;;;;;;;;;;5121160;27;20043;-81
2022/09/05 05:28:03;;;;;;;7.55;6.93;;;;;;;;;;5142169;27;20066;-87
2022/09/05 05:30:31;;;;;;;7.60;6.95;;;16.20;99.90;;;;;;5109172;27;20043;-87
2022/09/05 05:33:01;;;;;;;8.95;6.90;;;16.40;99.90;;;;;;5126507;27;20051;-85
2022/09/05 05:35:33;;;;;;;9.50;6.97;;;;;;;;;;5104918;27;20047;-87
2022/09/05 05:38:30;;;;;;;8.50;7.53;;;16.50;99.90;;;;;;5100064;27;20054;-82
2022/09/05 05:41:14;;;;;;;8.10;7.28;;;16.50;99.90;;;;;;5108065;27;20576;-86
2022/09/05 05:43:46;;;;;;;7.85;7.15;;;16.50;99.90;;;;;;5128253;27;20099;-87
2022/09/05 05:46:22;;;;;;;8.85;7.53;;;16.30;99.90;;;;;;5108919;27;20035;-87
2022/09/05 05:48:50;;;;;;;11.77;8.82;;;16.30;99.90;;;;;;5108286;27;20061;-86
2022/09/05 05:51:32;;;;;;;7.70;7.00;;;16.50;99.90;;;;;;5113150;27;20051;-88
2022/09/05 05:54:20;;;;;;;7.68;7.03;;;16.40;99.90;;;;;;5126018;27;20090;-88
2022/09/05 05:56:55;;;;;;;12.75;8.32;;;;;;;;;;5109949;27;20038;-84
2022/09/05 05:59:45;;;;;;;9.30;7.45;;;16.40;99.90;;;;;;5101441;27;20166;-87
2022/09/05 06:02:48;;;;;;;9.30;7.63;;;16.60;99.90;;;;;;5108594;27;20047;-83
2022/09/05 06:05:43;;;;;;;9.05;7.50;;;16.70;99.90;;;;;;5114806;27;20490;-86
2022/09/05 06:08:38;;;;;;;9.68;7.53;;;16.80;99.90;;;;;;5017873;28;20521;-87
2022/09/05 06:11:04;;;;;;;10.70;7.65;;;;;;;;;;4941587;28;20448;-87
2022/09/05 06:13:42;;;;;;;7.72;7.03;;;;;;;;;;4931253;29;20059;-88
2022/09/05 06:16:08;;;;;;;13.02;7.72;;;;;;;;;;4932301;29;20055;-87
2022/09/05 06:19:05;;;;;;;12.35;7.72;;;16.90;99.90;;;;;;4925087;29;20102;-88
2022/09/05 06:21:44;;;;;;;9.30;8.30;;;;;;;;;;4912127;29;20051;-86
2022/09/05 06:24:18;;;;;;;8.43;7.47;;;;;;;;;;4926420;29;20047;-87
2022/09/05 06:26:50;;;;;;;12.13;8.88;;;;;;;;;;4923711;29;20055;-87
2022/09/05 06:29:28;;;;;;;8.95;8.13;;;;;;;;;;4934530;29;20082;-87
2022/09/05 06:32:08;;;;;;;11.07;8.00;;;17.10;99.90;;;;;;4924950;29;20055;-85
2022/09/05 06:34:34;;;;;;;10.55;8.00;;;;;;;;;;4919879;29;20110;-87
2022/09/05 06:37:24;;;;;;;9.77;8.55;;;17.40;99.90;;;;;;4920117;29;20063;-87
2022/09/05 06:39:59;;;;;;;8.63;7.22;;;;;;;;;;4921209;29;20051;-87
2022/09/05 06:42:35;;;;;;;11.88;7.03;;;17.30;99.90;;;;;;4918032;29;20534;-86
2022/09/05 06:45:04;;;;;;;11.13;8.05;;;;;;;;;;4981367;28;20089;-88
2022/09/05 06:47:34;;;;;;;8.68;7.25;;;17.40;99.90;;;;;;5094597;27;20051;-85
2022/09/05 06:50:23;;;;;;;9.23;7.60;;;17.50;99.90;;;;;;5099987;27;20043;-82
2022/09/05 06:52:52;;;;;;;7.65;6.82;;;;;;;;;;5067007;28;20052;-87
2022/09/05 06:55:50;;;;;;;9.27;7.30;;;17.70;99.90;;;;;;5060841;28;20052;-87
2022/09/05 06:58:53;;;;;;;10.27;7.60;;;17.90;99.90;;;;;;5059610;28;20090;-82
2022/09/05 07:01:30;;;;;;;10.45;7.88;;;17.80;99.90;;;;;;5040702;28;20044;-85
2022/09/05 07:03:56;;;;;;;8.50;7.55;;;;;;;;;;5048145;28;20483;-87
2022/09/05 07:06:38;;;;;;;8.05;7.28;;;18.00;99.90;;;;;;5066563;28;20048;-86
2022/09/05 07:09:07;;;;;;;13.60;8.35;;;18.10;99.90;;;;;;5060931;28;20044;-86
2022/09/05 07:11:46;;;;;;;8.55;7.35;;;18.30;99.90;;;;;;5062096;28;20084;-83
2022/09/05 07:14:26;;;;;;;7.85;6.90;;;18.40;99.90;;;;;;5052505;28;20052;-83
2022/09/05 07:17:10;;;;;;;8.18;7.38;;;;;;;;;;5055830;28;20059;-82
2022/09/05 07:19:37;;;;;;;12.63;7.03;;;;;;;;;;5059797;28;20098;-87
2022/09/05 07:22:13;;;;;;;7.85;7.05;;;;;;;;;;5040024;28;20525;-83
2022/09/05 07:24:46;;;;;;;9.93;7.00;;;18.60;99.90;;;;;;5049921;28;20058;-84
2022/09/05 07:27:36;;;;;;;7.68;6.88;;;18.60;99.90;;;;;;5039749;28;20493;-86
2022/09/05 07:30:04;;;;;;;10.25;7.63;;;18.80;99.90;;;;;;5082048;27;20082;-87
2022/09/05 07:32:40;;;;;;;7.43;6.72;;;18.80;99.90;;;;;;5140700;27;20054;-84
2022/09/05 07:35:12;;;;;;;11.35;7.60;;;18.90;99.90;;;;;;5106221;27;20095;-84
2022/09/05 07:37:42;;;;;;;10.55;7.38;;;19.00;99.90;;;;;;5122177;27;20039;-83
2022/09/05 07:40:14;;;;;;;6.97;6.38;;;19.10;99.90;;;;;;5123742;27;20125;-84
2022/09/05 07:42:50;;;;;;;10.43;7.90;;;19.10;99.90;;;;;;5146878;27;20053;-85
2022/09/05 07:45:24;;;;;;;6.80;6.15;;;19.30;99.90;;;;;;5104925;27;20031;-84
2022/09/05 07:48:10;;;;;;;8.20;7.35;;;19.40;99.90;;;;;;5104932;27;20168;-85
2022/09/05 07:50:50;;;;;;;8.30;6.93;;;19.40;99.90;;;;;;5124397;27;20047;-80
2022/09/05 07:53:17;;;;;;;8.70;6.18;;;19.50;99.90;;;;;;5082640;28;20395;-85
2022/09/05 07:55:52;;;;;;;9.68;6.78;;;19.50;99.90;;;;;;5117337;27;20043;-84
2022/09/05 07:58:22;;;;;;;10.57;6.95;;;19.80;99.90;;;;;;5099651;27;20039;-85
2022/09/05 08:00:55;;;;;;;8.27;6.63;;;19.70;99.90;;;;;;5107291;28;20046;-84
2022/09/05 08:03:27;;;;;;;7.03;6.32;;;20.00;99.90;;;;;;5098514;27;20506;-83
2022/09/05 08:05:58;;;;;;;8.77;6.72;;;20.00;99.90;;;;;;5121616;27;20054;-83
2022/09/05 08:08:32;;;;;;;9.20;6.88;;;20.10;99.90;;;;;;5097587;27;20407;-83
2022/09/05 08:11:10;;;;;;;10.15;6.45;;;20.30;99.90;;;;;;5130628;28;20051;-83
2022/09/05 08:13:41;;;;;;;7.82;7.10;;;20.10;99.90;;;;;;5078605;28;20039;-84
2022/09/05 08:16:10;;;;;;;8.65;7.15;;;20.40;99.90;;;;;;5102396;28;20073;-84
2022/09/05 08:19:14;;;;;;;6.63;6.03;;;20.40;99.90;;;;;;5122947;28;20050;-85
2022/09/05 08:21:50;;;;;;;11.52;7.13;;;20.60;99.90;;;;;;5009521;28;20162;-85
2022/09/05 08:24:38;;;;;;;9.27;6.75;;;20.60;99.90;;;;;;5014915;28;20512;-84
2022/09/05 08:27:19;;;;;;;7.85;6.32;;;20.80;99.90;;;;;;5034453;28;20457;-83
2022/09/05 08:29:56;;;;;;;10.70;6.40;;;18.40;99.90;;;;;;5030171;28;20049;-84
2022/09/05 08:32:45;;;;;;;7.03;6.40;;;20.80;99.90;;;;;;5019084;28;20053;-84
2022/09/05 08:35:26;;;;;;;7.40;5.68;;;21.00;99.90;;;;;;5044696;28;20041;-84
2022/09/05 08:37:53;;;;;;;8.55;6.18;;;21.00;99.90;;;;;;5023730;28;20612;-84
2022/09/05 08:40:29;;;;;;;7.15;5.60;;;21.40;99.90;;;;;;5040438;28;20136;-84
2022/09/05 08:43:08;;;;;;;8.95;5.90;;;21.40;99.90;;;;;;5043190;28;20064;-83
2022/09/05 08:45:39;;;;;;;6.45;5.88;;;21.50;99.90;;;;;;5036351;28;20072;-84
2022/09/05 08:48:36;;;;;;;8.30;6.57;;;21.50;99.90;;;;;;5015898;28;20375;-83
2022/09/05 08:51:25;;;;;;;8.23;5.63;;;21.70;99.90;;;;;;5036913;28;20527;-83
2022/09/05 08:54:12;;;;;;;5.97;5.38;;;21.70;99.90;;;;;;5012109;28;20160;-81
2022/09/05 08:56:53;;;;;;;;;;;22.10;99.90;;;;;;5051331;27;20055;-84
2022/09/05 09:00:00;;;;;;;11.20;5.97;;;21.90;99.90;;;;;;5112910;27;19931;-83
2022/09/05 09:02:33;;;;;;;6.75;6.10;;;22.10;99.90;;;;;;5116533;27;20162;-84
2022/09/05 09:05:09;;;;;;;6.65;6.05;;;22.30;99.90;;;;;;5121513;27;20448;-84
2022/09/05 09:07:44;;;;;;;6.25;5.25;;;22.50;99.90;;;;;;5109101;27;20446;-84
2022/09/05 09:10:25;;;;;;;12.80;5.78;;;22.30;99.90;;;;;;5089075;27;20533;-84
2022/09/05 09:13:09;;;;;;;13.27;5.97;;;22.50;99.90;;;;;;5112483;27;20039;-85
2022/09/05 09:15:34;;;;;;;;;;;22.60;99.90;;;;;;5103804;27;20087;-84
2022/09/05 09:18:12;;;;;;;5.70;4.95;;;22.50;99.90;;;;;;5116059;27;20367;-84
2022/09/05 09:20:58;;;;;;;8.93;5.47;;;22.60;99.90;;;;;;5117940;27;20043;-84
2022/09/05 09:23:47;;;;;;;6.72;5.30;;;22.80;99.90;;;;;;5104385;27;20035;-84
2022/09/05 09:26:20;;;;;;;10.73;6.22;;;23.00;99.90;;;;;;5062598;28;20063;-84
2022/09/05 09:29:01;;;;;;;7.95;6.05;;;23.00;99.90;;;;;;5047109;28;20474;-84
2022/09/05 09:31:44;;;;;;;7.07;5.47;;;22.90;99.90;;;;;;5067148;28;20046;-84
2022/09/05 09:34:24;;;;;;;6.10;5.47;;;23.10;99.90;;;;;;5063026;28;20048;-83
2022/09/05 09:37:39;;;;;;;8.85;5.43;;;23.50;99.90;;;;;;5056055;28;20131;-84
2022/09/05 09:40:05;;;;;;;5.97;4.85;;;23.50;99.90;;;;;;5053504;28;20545;-84
2022/09/05 09:42:56;;;;;;;7.47;5.38;;;23.60;99.90;;;;;;5026664;28;20077;-85
2022/09/05 09:45:43;;;;;;;5.40;4.88;;;24.00;99.90;;;;;;5004002;28;20052;-84
2022/09/05 09:48:15;;;;;;;12.27;5.75;;;23.80;99.90;;;;;;5024660;28;20164;-85
2022/09/05 09:50:49;;;;;;;5.72;5.13;;;23.80;99.90;;;;;;5042679;28;20060;-83
2022/09/05 09:53:24;;;;;;;7.43;4.60;;;23.90;99.90;;;;;;5034655;28;21251;-84
2022/09/05 09:56:25;;;;;;;8.55;5.88;;;24.20;99.90;;;;;;5026078;28;20088;-84
2022/09/05 09:59:18;;;;;;;5.78;4.60;;;24.20;99.90;;;;;;5008454;28;20569;-84
2022/09/05 10:01:53;;;;;;;8.27;4.10;;;24.50;99.90;;;;;;5020198;28;20148;-84
2022/09/05 10:04:19;;;;;;;5.82;4.78;;;24.70;99.90;;;;;;4968439;28;20525;-85
2022/09/05 10:06:58;;;;;;;4.63;4.13;;;25.90;99.90;;;;;;4971650;28;20103;-84
2022/09/05 10:09:34;;;;;;;9.85;4.60;;;24.80;99.90;;;;;;4986766;28;20415;-84
2022/09/05 10:12:18;;;;;;;6.97;4.70;;;24.80;99.90;;;;;;4987452;28;20088;-83
2022/09/05 10:15:12;;;;;;;4.53;4.07;;;25.10;99.90;;;;;;4993813;28;20050;-84
2022/09/05 10:17:41;;;;;;;;;;;24.90;99.90;;;;;;5030323;28;20106;-83
2022/09/05 10:20:25;;;;;;;6.07;4.38;;;24.80;99.90;;;;;;5030027;28;19921;-83
2022/09/05 10:23:12;;;;;;;8.20;3.72;;;25.10;99.90;;;;;;5033634;28;20078;-84
2022/09/05 10:26:20;;;;;;;11.00;4.25;;;25.20;99.90;;;;;;5016657;28;20544;-83
2022/09/05 10:28:48;;;;;;;5.15;3.40;;;25.30;99.90;;;;;;5028740;28;20091;-83
2022/09/05 10:31:14;;;;;;;5.82;3.45;;;25.40;99.90;;;;;;5033905;28;20156;-84
2022/09/05 10:34:34;;;;;;;5.65;3.70;;;25.30;99.90;;;;;;5023466;28;20416;-84
2022/09/05 10:37:03;;;;;;;2.67;2.47;;;25.40;99.90;;;;;;5033400;28;20512;-84
2022/09/05 10:39:38;;;;;;;3.08;2.47;;;24.30;99.90;;;;;;5058102;28;20088;-84
2022/09/05 10:42:14;;;;;;;3.13;2.75;;;25.60;99.90;;;;;;5013808;28;20045;-81
2022/09/05 10:44:52;;;;;;;13.48;2.90;;;25.60;99.90;;;;;;5035401;28;20125;-82
2022/09/05 10:47:39;;;;;;;5.13;2.85;;;25.80;99.90;;;;;;5036421;28;20056;-83
2022/09/05 10:50:25;;;;;;;6.90;2.47;;;25.60;99.90;;;;;;5036575;28;20052;-83
2022/09/05 10:53:14;;;;;;;3.10;2.40;;;25.60;99.90;;;;;;5047859;28;20127;-83
2022/09/05 10:56:10;;;;;;;6.32;2.47;;;25.90;99.90;;;;;;5036288;28;20047;-84
2022/09/05 10:58:51;;;;;;;5.03;2.90;;;26.20;99.90;;;;;;5053975;28;20493;-84
2022/09/05 11:01:40;;;;;;;2.85;2.50;;;26.20;99.90;;;;;;5039951;28;20152;-84
2022/09/05 11:04:19;;;;;;;2.65;2.45;;;26.10;99.90;;;;;;5001501;28;20054;-84
2022/09/05 11:07:05;;;;;;;5.05;2.50;;;26.40;99.90;;;;;;5005255;28;20053;-84
2022/09/05 11:09:55;;;;;;;2.85;2.50;;;26.60;99.90;;;;;;4945220;28;20047;-84
2022/09/05 11:12:33;;;;;;;3.20;2.15;;;26.60;99.90;;;;;;4974145;28;20419;-83
2022/09/05 11:15:04;;;;;;;7.78;2.42;;;26.60;99.90;;;;;;4989956;28;20141;-83
2022/09/05 11:17:43;;;;;;;6.78;2.50;;;26.60;99.90;;;;;;4989605;28;20050;-84
2022/09/05 11:20:12;;;;;;;3.15;2.20;;;26.90;99.90;;;;;;4989907;28;20062;-84
2022/09/05 11:22:40;;;;;;;4.13;2.28;;;26.60;99.90;;;;;;4995966;28;20061;-84
2022/09/05 11:25:22;;;;;;;4.78;2.33;;;26.80;99.90;;;;;;4983176;28;20546;-84
2022/09/05 11:27:56;;;;;;;4.18;2.60;;;26.50;99.90;;;;;;4979229;28;20223;-84
2022/09/05 11:30:31;;;;;;;5.25;2.20;;;27.00;99.90;;;;;;4959010;28;20093;-84
2022/09/05 11:33:23;;;;;;;7.95;2.53;;;27.00;99.90;;;;;;4975081;28;20062;-84
2022/09/05 11:35:57;;;;;;;3.40;2.50;;;27.20;99.90;;;;;;4990249;28;20494;-84
2022/09/05 11:38:58;;;;;;;2.80;2.60;;;27.20;99.90;;;;;;4974552;28;20050;-83
2022/09/05 11:41:49;;;;;;;5.25;2.58;;;27.10;99.90;;;;;;4995770;28;20112;-84
2022/09/05 11:44:49;;;;;;;3.53;2.15;;;27.10;99.90;;;;;;5016894;28;20120;-84
2022/09/05 11:47:30;;;;;;;6.43;2.70;;;27.20;99.90;;;;;;5063326;28;20075;-84
2022/09/05 11:50:24;;;;;;;2.38;2.00;;;27.30;99.90;;;;;;5104435;27;20062;-84
2022/09/05 11:53:07;;;;;;;4.47;2.63;;;27.60;99.90;;;;;;5121696;27;20047;-84
2022/09/05 11:55:39;;;;;;;2.28;2.10;;;27.30;99.90;;;;;;5106155;27;20399;-84
2022/09/05 11:58:28;;;;;;;6.22;2.47;;;27.50;99.90;;;;;;5123237;27;20047;-84
2022/09/05 12:01:14;;;;;;;3.40;2.17;;;27.30;99.90;;;;;;5099977;27;20043;-84
2022/09/05 12:04:07;;;;;;;4.00;2.97;;;27.60;99.90;;;;;;5095393;27;20499;-83
2022/09/05 12:06:55;;;;;;;5.03;2.40;;;27.70;99.90;;;;;;5104660;27;20090;-84
2022/09/05 12:09:54;;;;;;;6.47;2.47;;;27.70;99.90;;;;;;5123769;27;20039;-84
2022/09/05 12:12:31;;;;;;;3.35;2.60;;;27.60;99.90;;;;;;5108381;28;20121;-84
2022/09/05 12:15:15;;;;;;;3.00;2.63;;;25.70;99.90;;;;;;5107099;28;20039;-83
2022/09/05 12:18:01;;;;;;;6.00;2.35;;;27.90;99.90;;;;;;5113079;27;20097;-84
2022/09/05 12:21:07;;;;;;;7.28;2.25;;;28.40;99.90;;;;;;5134354;28;20113;-87
2022/09/05 12:23:53;;;;;;;4.32;2.38;;;28.10;99.90;;;;;;5123675;28;20051;-84
2022/09/05 12:26:32;;;;;;;5.70;2.92;;;27.70;99.90;;;;;;5120492;28;20046;-84
2022/09/05 12:29:09;;;;;;;4.10;3.53;;;27.80;99.90;;;;;;5108314;28;20417;-84
2022/09/05 12:31:37;;;;;;;3.08;2.60;;;27.80;99.90;;;;;;5111278;27;20051;-83
2022/09/05 12:34:09;;;;;;;2.67;2.38;;;28.00;99.90;;;;;;5120357;27;20080;-86
2022/09/05 12:36:43;;;;;;;7.68;2.83;;;27.70;99.90;;;;;;5126214;27;20516;-85
2022/09/05 12:39:34;;;;;;;4.13;2.53;;;27.60;99.90;;;;;;5112236;27;20053;-85
2022/09/05 12:42:21;;;;;;;3.72;2.42;;;29.70;99.90;;;;;;5128842;27;20066;-82
2022/09/05 12:45:17;;;;;;;4.10;2.38;;;27.20;99.90;;;;;;5111640;27;20179;-83
2022/09/05 12:48:07;;;;;;;4.38;3.33;;;27.80;99.90;;;;;;5118608;27;20500;-83
2022/09/05 12:50:42;;;;;;;2.90;2.40;;;28.00;99.90;;;;;;5094457;28;20500;-86
2022/09/05 12:53:19;;;;;;;6.07;2.67;;;27.80;99.90;;;;;;5125369;27;20078;-86
2022/09/05 12:56:00;;;;;;;4.15;2.75;;;29.90;99.90;;;;;;5099192;27;20043;-86
2022/09/05 12:58:30;;;;;;;6.72;2.85;;;28.00;99.90;;;;;;5100485;28;20173;-85
2022/09/05 13:01:22;;;;;;;8.63;3.20;;;28.00;99.90;;;;;;5115394;27;20075;-84
2022/09/05 13:04:02;;;;;;;4.30;3.00;;;27.90;99.90;;;;;;5126221;27;20047;-86
2022/09/05 13:06:55;;;;;;;3.08;2.88;;;27.70;99.90;;;;;;5102255;27;20039;-85
2022/09/05 13:09:35;;;;;;;7.10;2.88;;;27.80;99.90;;;;;;5095735;28;20054;-86
2022/09/05 13:12:16;;;;;;;8.80;2.80;;;28.00;99.90;;;;;;5101849;28;20035;-85
2022/09/05 13:15:06;;;;;;;3.78;2.20;;;28.00;99.90;;;;;;5100746;28;20043;-83
2022/09/05 13:17:41;;;;;;;3.00;2.67;;;28.10;99.90;;;;;;5116730;28;20047;-85
2022/09/05 13:20:31;;;;;;;6.43;2.70;;;27.90;99.90;;;;;;5083458;28;20097;-85
2022/09/05 13:23:03;;;;;;;4.75;3.17;;;27.80;99.90;;;;;;5081870;28;20039;-82
2022/09/05 13:25:33;;;;;;;4.90;3.00;;;28.10;99.90;;;;;;5063362;28;20040;-86
2022/09/05 13:28:05;;;;;;;3.90;2.53;;;28.40;99.90;;;;;;5098003;28;20716;-85
2022/09/05 13:30:37;;;;;;;5.05;3.28;;;28.40;99.90;;;;;;5082464;28;20118;-83
2022/09/05 13:33:43;;;;;;;6.93;3.38;;;28.20;99.90;;;;;;5082851;28;20400;-86
2022/09/05 13:36:20;;;;;;;3.75;2.90;;;28.70;99.90;;;;;;5096892;28;20048;-83
2022/09/05 13:39:06;;;;;;;2.70;2.50;;;28.20;99.90;;;;;;5081369;28;20051;-83
2022/09/05 13:41:36;;;;;;;3.25;2.45;;;28.70;99.90;;;;;;5098829;28;20092;-81
2022/09/05 13:44:15;;;;;;;3.28;2.72;;;28.40;99.90;;;;;;5097711;28;20487;-84
2022/09/05 13:46:58;;;;;;;4.32;2.28;;;29.30;99.90;;;;;;5092016;28;20049;-81
2022/09/05 13:49:33;;;;;;;2.83;2.63;;;28.80;99.90;;;;;;5107062;28;20075;-83
2022/09/05 13:52:28;;;;;;;6.25;2.72;;;29.10;99.90;;;;;;5060953;28;20383;-84
2022/09/05 13:55:23;;;;;;;3.72;2.60;;;28.60;99.90;;;;;;4979354;28;20053;-83
2022/09/05 13:57:57;;;;;;;3.78;2.80;;;28.80;99.90;;;;;;4979856;28;20046;-84
2022/09/05 14:00:48;;;;;;;8.43;2.70;;;28.70;99.90;;;;;;4988038;28;20038;-83
2022/09/05 14:03:34;;;;;;;4.30;2.78;;;28.80;99.90;;;;;;4901527;29;20143;-82
2022/09/05 14:06:22;;;;;;;2.60;2.40;;;28.90;99.90;;;;;;4911527;29;20103;-81
2022/09/05 14:09:02;;;;;;;4.57;2.25;;;28.60;99.90;;;;;;4893785;29;20526;-81
2022/09/05 14:11:39;;;;;;;2.78;2.58;;;28.90;99.90;;;;;;4901098;29;20421;-84
2022/09/05 14:14:26;;;;;;;2.42;2.25;;;28.80;99.90;;;;;;4887498;29;20078;-83
2022/09/05 14:17:02;;;;;;;4.38;2.53;;;28.90;99.90;;;;;;4903321;29;20048;-83